createdAt,value
2023-05-19T00:00:56.813Z,25.00
2023-05-19T00:01:56.935Z,0.00
2023-05-19T00:02:57.073Z,0.00
2023-05-19T00:03:56.946Z,0.00
2023-05-19T00:04:56.998Z,0.00
2023-05-19T00:05:57.125Z,0.00
2023-05-19T00:06:57.105Z,3.79
2023-05-19T00:07:57.169Z,16.30
2023-05-19T00:08:57.227Z,25.89
2023-05-19T00:09:57.277Z,25.00
2023-05-19T00:10:57.325Z,25.22
2023-05-19T00:11:57.410Z,25.00
2023-05-19T00:12:57.441Z,26.49
2023-05-19T00:13:57.506Z,25.00
2023-05-19T00:14:57.593Z,25.47
2023-05-19T00:15:57.664Z,25.69
2023-05-19T00:16:57.691Z,29.78
2023-05-19T00:17:57.719Z,26.97
2023-05-19T00:18:57.820Z,25.55
2023-05-19T00:19:57.831Z,25.89
2023-05-19T00:20:57.886Z,25.00
2023-05-19T00:21:57.941Z,27.78
2023-05-19T00:22:57.996Z,26.27
2023-05-19T00:23:58.056Z,26.37
2023-05-19T00:24:58.111Z,26.37
2023-05-19T00:25:58.174Z,26.34
2023-05-19T00:26:58.239Z,27.83
2023-05-19T00:27:58.328Z,26.29
2023-05-19T00:28:58.355Z,26.49
2023-05-19T00:29:58.417Z,27.95
2023-05-19T00:30:58.477Z,34.23
2023-05-19T00:31:58.597Z,28.05
2023-05-19T00:32:58.634Z,25.43
2023-05-19T00:33:58.658Z,27.24
2023-05-19T00:34:58.719Z,28.41
2023-05-19T00:35:58.796Z,27.92
2023-05-19T00:36:58.841Z,27.63
2023-05-19T00:37:58.902Z,26.25
2023-05-19T00:38:58.960Z,28.72
2023-05-19T00:39:59.016Z,26.35
2023-05-19T00:40:59.082Z,25.00
2023-05-19T00:41:59.117Z,27.66
2023-05-19T00:42:59.771Z,28.33
2023-05-19T00:43:59.318Z,31.13
2023-05-19T00:44:59.301Z,26.16
2023-05-19T00:45:59.368Z,28.63
2023-05-19T00:46:59.569Z,29.48
2023-05-19T00:47:59.514Z,26.74
2023-05-19T00:48:59.556Z,25.78
2023-05-19T00:49:59.610Z,27.92
2023-05-19T00:50:59.675Z,30.40
2023-05-19T00:51:59.734Z,26.99
2023-05-19T00:52:59.806Z,25.30
2023-05-19T00:53:59.849Z,27.68
2023-05-19T00:55:00.264Z,27.15
2023-05-19T00:56:00.282Z,28.11
2023-05-19T00:57:00.266Z,28.95
2023-05-19T00:58:00.274Z,26.56
2023-05-19T00:59:00.271Z,26.68
2023-05-19T01:00:00.292Z,27.37
2023-05-19T01:01:00.306Z,28.96
2023-05-19T01:02:00.320Z,27.51
2023-05-19T01:03:00.475Z,26.28
2023-05-19T01:04:00.612Z,29.37
2023-05-19T01:05:00.507Z,27.25
2023-05-19T01:06:00.568Z,26.15
2023-05-19T01:07:00.615Z,29.43
2023-05-19T01:08:00.689Z,30.36
2023-05-19T01:09:00.720Z,29.98
2023-05-19T01:10:00.782Z,29.29
2023-05-19T01:11:00.862Z,29.42
2023-05-19T01:12:01.286Z,29.15
2023-05-19T01:13:01.304Z,29.32
2023-05-19T01:14:01.283Z,25.00
2023-05-19T01:15:01.289Z,30.38
2023-05-19T01:16:01.365Z,31.11
2023-05-19T01:17:01.289Z,30.92
2023-05-19T01:18:01.298Z,30.86
2023-05-19T01:19:01.389Z,25.66
2023-05-19T01:20:01.395Z,30.11
2023-05-19T01:21:01.456Z,27.44
2023-05-19T01:22:01.505Z,29.90
2023-05-19T01:23:01.581Z,28.19
2023-05-19T01:24:01.635Z,28.07
2023-05-19T01:25:01.685Z,27.26
2023-05-19T01:26:01.730Z,28.64
2023-05-19T01:27:01.793Z,26.32
2023-05-19T01:28:01.852Z,31.28
2023-05-19T01:29:01.909Z,27.71
2023-05-19T01:30:01.969Z,26.93
2023-05-19T01:31:02.049Z,29.45
2023-05-19T01:32:02.203Z,28.29
2023-05-19T01:33:02.266Z,31.81
2023-05-19T01:34:02.174Z,28.61
2023-05-19T01:35:02.235Z,29.45
2023-05-19T01:36:02.304Z,31.33
2023-05-19T01:37:02.357Z,28.54
2023-05-19T01:38:02.399Z,29.99
2023-05-19T01:39:02.450Z,27.83
2023-05-19T01:40:02.500Z,29.17
2023-05-19T01:41:02.560Z,29.39
2023-05-19T01:42:02.697Z,32.21
2023-05-19T01:43:02.777Z,27.10
2023-05-19T01:44:02.733Z,29.54
2023-05-19T01:45:02.793Z,30.21
2023-05-19T01:46:02.905Z,28.86
2023-05-19T01:47:02.910Z,28.32
2023-05-19T01:48:03.084Z,29.66
2023-05-19T01:49:03.034Z,26.96
2023-05-19T01:50:03.083Z,30.44
2023-05-19T01:51:03.175Z,29.41
2023-05-19T01:52:03.190Z,30.09
2023-05-19T01:53:03.256Z,28.72
2023-05-19T01:54:03.311Z,30.30
2023-05-19T01:55:03.363Z,32.04
2023-05-19T01:56:03.426Z,31.31
2023-05-19T01:57:03.484Z,28.76
2023-05-19T01:58:03.535Z,28.11
2023-05-19T01:59:03.590Z,31.71
2023-05-19T02:00:03.662Z,29.41
2023-05-19T02:01:03.823Z,30.94
2023-05-19T02:02:03.757Z,28.40
2023-05-19T02:03:03.836Z,29.69
2023-05-19T02:04:03.888Z,30.35
2023-05-19T02:05:03.872Z,27.18
2023-05-19T02:06:03.963Z,29.93
2023-05-19T02:07:03.997Z,29.42
2023-05-19T02:08:04.042Z,26.58
2023-05-19T02:09:04.096Z,26.55
2023-05-19T02:10:04.211Z,25.65
2023-05-19T02:11:04.202Z,27.29
2023-05-19T02:12:04.247Z,28.77
2023-05-19T02:13:04.316Z,26.16
2023-05-19T02:14:04.355Z,28.37
2023-05-19T02:15:04.410Z,29.48
2023-05-19T02:16:04.519Z,27.80
2023-05-19T02:17:04.515Z,30.60
2023-05-19T02:18:04.753Z,28.67
2023-05-19T02:19:04.660Z,28.26
2023-05-19T02:20:04.844Z,29.08
2023-05-19T02:21:04.719Z,29.64
2023-05-19T02:22:04.785Z,31.52
2023-05-19T02:23:04.822Z,30.29
2023-05-19T02:24:04.866Z,31.11
2023-05-19T02:25:04.923Z,29.42
2023-05-19T02:26:04.979Z,32.21
2023-05-19T02:27:05.033Z,32.75
2023-05-19T02:28:05.091Z,29.60
2023-05-19T02:29:05.142Z,28.81
2023-05-19T02:30:05.201Z,29.90
2023-05-19T02:31:05.256Z,29.79
2023-05-19T02:32:05.403Z,29.00
2023-05-19T02:33:05.457Z,30.16
2023-05-19T02:34:05.428Z,32.05
2023-05-19T02:35:05.534Z,30.81
2023-05-19T02:36:05.675Z,29.36
2023-05-19T02:37:05.609Z,29.31
2023-05-19T02:38:05.639Z,26.59
2023-05-19T02:39:05.695Z,30.55
2023-05-19T02:40:05.763Z,28.59
2023-05-19T02:41:05.810Z,28.39
2023-05-19T02:42:05.868Z,28.53
2023-05-19T02:43:06.284Z,30.17
2023-05-19T02:44:06.320Z,27.02
2023-05-19T02:45:06.341Z,30.11
2023-05-19T02:46:06.377Z,31.80
2023-05-19T02:47:06.338Z,29.03
2023-05-19T02:48:06.351Z,30.16
2023-05-19T02:49:06.329Z,32.42
2023-05-19T02:50:06.335Z,29.28
2023-05-19T02:51:06.374Z,29.92
2023-05-19T02:52:06.568Z,30.10
2023-05-19T02:53:06.488Z,31.13
2023-05-19T02:54:06.540Z,29.63
2023-05-19T02:55:06.586Z,26.52
2023-05-19T02:56:06.646Z,28.46
2023-05-19T02:57:06.765Z,32.29
2023-05-19T02:58:06.747Z,27.06
2023-05-19T02:59:06.811Z,29.13
2023-05-19T03:00:06.859Z,32.54
2023-05-19T03:01:06.922Z,31.40
2023-05-19T03:02:07.499Z,31.15
2023-05-19T03:03:07.407Z,29.99
2023-05-19T03:04:07.393Z,29.04
2023-05-19T03:05:07.335Z,29.70
2023-05-19T03:06:07.337Z,32.11
2023-05-19T03:07:07.338Z,30.89
2023-05-19T03:08:07.369Z,28.60
2023-05-19T03:09:07.375Z,29.61
2023-05-19T03:10:07.417Z,30.97
2023-05-19T03:11:07.470Z,31.65
2023-05-19T03:12:07.708Z,29.22
2023-05-19T03:13:07.575Z,32.92
2023-05-19T03:14:07.618Z,30.20
2023-05-19T03:15:07.652Z,28.86
2023-05-19T03:16:07.836Z,29.60
2023-05-19T03:17:07.833Z,31.84
2023-05-19T03:18:07.882Z,28.96
2023-05-19T03:19:07.917Z,28.97
2023-05-19T03:20:07.914Z,29.55
2023-05-19T03:21:07.974Z,28.71
2023-05-19T03:22:08.028Z,29.59
2023-05-19T03:23:08.074Z,28.52
2023-05-19T03:24:08.159Z,30.28
2023-05-19T03:25:08.191Z,28.43
2023-05-19T03:26:08.256Z,29.15
2023-05-19T03:27:08.293Z,28.87
2023-05-19T03:28:08.336Z,32.55
2023-05-19T03:29:08.408Z,27.36
2023-05-19T03:30:08.440Z,29.00
2023-05-19T03:31:08.501Z,28.16
2023-05-19T03:32:08.595Z,28.12
2023-05-19T03:33:08.695Z,29.03
2023-05-19T03:34:08.667Z,28.86
2023-05-19T03:35:08.726Z,28.99
2023-05-19T03:36:08.778Z,26.95
2023-05-19T03:37:08.839Z,27.30
2023-05-19T03:38:08.893Z,31.79
2023-05-19T03:39:08.938Z,29.64
2023-05-19T03:40:09.026Z,25.00
2023-05-19T03:41:09.348Z,31.53
2023-05-19T03:42:09.129Z,30.31
2023-05-19T03:43:09.171Z,28.53
2023-05-19T03:44:09.219Z,27.61
2023-05-19T03:45:09.278Z,28.88
2023-05-19T03:46:09.340Z,30.58
2023-05-19T03:47:09.415Z,26.05
2023-05-19T03:48:09.444Z,29.50
2023-05-19T03:49:09.480Z,28.68
2023-05-19T03:50:09.545Z,28.82
2023-05-19T03:51:09.603Z,26.44
2023-05-19T03:52:09.646Z,28.98
2023-05-19T03:53:09.715Z,29.74
2023-05-19T03:54:09.746Z,28.92
2023-05-19T03:55:09.804Z,28.35
2023-05-19T03:56:09.893Z,27.17
2023-05-19T03:57:09.921Z,28.00
2023-05-19T03:58:09.972Z,26.71
2023-05-19T03:59:10.036Z,29.43
2023-05-19T04:00:10.105Z,28.24
2023-05-19T04:01:10.131Z,29.97
2023-05-19T04:02:10.223Z,32.53
2023-05-19T04:03:10.432Z,26.24
2023-05-19T04:04:10.343Z,29.12
2023-05-19T04:05:10.352Z,31.27
2023-05-19T04:06:10.410Z,27.57
2023-05-19T04:07:10.458Z,29.91
2023-05-19T04:08:10.518Z,27.86
2023-05-19T04:09:10.576Z,30.19
2023-05-19T04:10:10.645Z,26.33
2023-05-19T04:11:10.684Z,28.38
2023-05-19T04:12:10.895Z,27.42
2023-05-19T04:13:10.782Z,25.89
2023-05-19T04:14:10.846Z,26.79
2023-05-19T04:15:10.890Z,27.93
2023-05-19T04:16:11.039Z,30.11
2023-05-19T04:17:10.987Z,27.13
2023-05-19T04:18:11.072Z,27.13
2023-05-19T04:19:11.124Z,25.72
2023-05-19T04:20:11.157Z,30.22
2023-05-19T04:21:11.216Z,26.98
2023-05-19T04:22:11.270Z,28.05
2023-05-19T04:23:11.324Z,32.12
2023-05-19T04:24:11.381Z,28.16
2023-05-19T04:25:11.432Z,28.13
2023-05-19T04:26:11.479Z,31.05
2023-05-19T04:28:10.628Z,28.60
2023-05-19T04:29:11.641Z,28.28
2023-05-19T04:30:12.448Z,30.53
2023-05-19T04:31:11.787Z,30.86
2023-05-19T04:32:11.812Z,29.42
2023-05-19T04:33:11.946Z,28.88
2023-05-19T04:34:11.938Z,33.78
2023-05-19T04:35:11.961Z,25.96
2023-05-19T04:36:12.402Z,28.52
2023-05-19T04:37:12.396Z,27.92
2023-05-19T04:38:12.399Z,32.42
2023-05-19T04:39:12.402Z,29.51
2023-05-19T04:40:12.408Z,29.89
2023-05-19T04:41:12.414Z,28.34
2023-05-19T04:42:12.408Z,30.59
2023-05-19T04:43:12.411Z,27.80
2023-05-19T04:44:12.447Z,27.89
2023-05-19T04:45:12.473Z,29.37
2023-05-19T04:46:13.910Z,26.70
2023-05-19T04:47:12.778Z,32.20
2023-05-19T04:48:12.772Z,27.29
2023-05-19T04:49:12.826Z,30.44
2023-05-19T04:50:13.868Z,28.65
2023-05-19T04:51:12.924Z,27.18
2023-05-19T04:52:12.969Z,28.55
2023-05-19T04:53:13.409Z,30.89
2023-05-19T04:54:13.408Z,27.41
2023-05-19T04:55:13.529Z,28.82
2023-05-19T04:56:13.427Z,29.55
2023-05-19T04:57:13.400Z,29.24
2023-05-19T04:58:13.413Z,28.30
2023-05-19T04:59:13.407Z,27.03
2023-05-19T05:00:13.450Z,33.14
2023-05-19T05:01:13.422Z,28.88
2023-05-19T05:02:13.587Z,26.36
2023-05-19T05:03:13.686Z,28.83
2023-05-19T05:04:13.629Z,28.77
2023-05-19T05:05:13.609Z,28.96
2023-05-19T05:06:13.657Z,27.77
2023-05-19T05:07:13.708Z,25.85
2023-05-19T05:08:13.757Z,25.00
2023-05-19T05:09:13.836Z,29.36
2023-05-19T05:10:13.887Z,30.47
2023-05-19T05:11:13.935Z,26.75
2023-05-19T05:12:14.003Z,31.02
2023-05-19T05:13:14.054Z,31.34
2023-05-19T05:14:14.110Z,32.19
2023-05-19T05:15:14.158Z,29.74
2023-05-19T05:16:14.340Z,32.85
2023-05-19T05:17:14.276Z,30.87
2023-05-19T05:18:14.386Z,28.33
2023-05-19T05:19:14.483Z,28.06
2023-05-19T05:20:14.456Z,28.67
2023-05-19T05:21:14.499Z,30.60
2023-05-19T05:22:14.555Z,29.76
2023-05-19T05:23:14.635Z,28.32
2023-05-19T05:24:14.675Z,31.82
2023-05-19T05:25:14.747Z,28.65
2023-05-19T05:26:14.785Z,29.65
2023-05-19T05:27:14.875Z,29.11
2023-05-19T05:28:14.904Z,30.06
2023-05-19T05:29:14.937Z,32.13
2023-05-19T05:30:15.007Z,30.45
2023-05-19T05:31:15.109Z,29.34
2023-05-19T05:32:15.141Z,29.23
2023-05-19T05:33:15.244Z,28.51
2023-05-19T05:34:15.217Z,29.04
2023-05-19T05:35:15.269Z,28.22
2023-05-19T05:36:15.321Z,27.08
2023-05-19T05:37:15.534Z,30.19
2023-05-19T05:38:15.418Z,30.00
2023-05-19T05:39:15.472Z,29.72
2023-05-19T05:40:15.526Z,30.12
2023-05-19T05:41:15.575Z,29.21
2023-05-19T05:42:15.628Z,28.63
2023-05-19T05:43:15.678Z,33.60
2023-05-19T05:44:15.722Z,29.12
2023-05-19T05:45:15.770Z,32.26
2023-05-19T05:46:15.869Z,30.28
2023-05-19T05:47:15.888Z,29.73
2023-05-19T05:48:16.093Z,29.17
2023-05-19T05:49:15.984Z,30.73
2023-05-19T05:50:16.048Z,26.04
2023-05-19T05:51:16.094Z,33.04
2023-05-19T05:52:16.139Z,32.27
2023-05-19T05:53:16.190Z,31.95
2023-05-19T05:54:16.250Z,30.10
2023-05-19T05:55:16.307Z,27.89
2023-05-19T05:56:16.370Z,30.77
2023-05-19T05:57:16.447Z,28.83
2023-05-19T05:58:16.466Z,30.17
2023-05-19T05:59:16.528Z,33.70
2023-05-19T06:00:16.590Z,32.08
2023-05-19T06:01:16.629Z,32.15
2023-05-19T06:02:16.692Z,31.75
2023-05-19T06:03:16.878Z,28.55
2023-05-19T06:04:16.832Z,29.10
2023-05-19T06:05:16.862Z,30.20
2023-05-19T06:06:16.864Z,32.25
2023-05-19T06:07:16.920Z,29.76
2023-05-19T06:08:16.949Z,29.87
2023-05-19T06:09:17.004Z,31.34
2023-05-19T06:10:17.052Z,29.27
2023-05-19T06:11:17.082Z,29.98
2023-05-19T06:12:17.135Z,26.79
2023-05-19T06:13:17.177Z,32.95
2023-05-19T06:14:17.219Z,31.05
2023-05-19T06:15:17.277Z,30.10
2023-05-19T06:16:17.346Z,30.26
2023-05-19T06:17:17.333Z,30.85
2023-05-19T06:18:17.373Z,28.95
2023-05-19T06:19:17.482Z,29.57
2023-05-19T06:20:17.517Z,33.61
2023-05-19T06:21:17.514Z,30.81
2023-05-19T06:22:17.539Z,31.40
2023-05-19T06:23:17.581Z,30.78
2023-05-19T06:24:17.627Z,30.31
2023-05-19T06:25:17.660Z,28.64
2023-05-19T06:26:17.712Z,30.58
2023-05-19T06:27:17.755Z,27.75
2023-05-19T06:28:17.766Z,30.58
2023-05-19T06:29:17.792Z,29.40
2023-05-19T06:30:17.831Z,28.05
2023-05-19T06:31:17.926Z,31.36
2023-05-19T06:32:17.886Z,29.93
2023-05-19T06:33:17.917Z,28.17
2023-05-19T06:34:17.978Z,27.98
2023-05-19T06:35:17.979Z,28.20
2023-05-19T06:36:18.119Z,29.80
2023-05-19T06:37:18.045Z,31.01
2023-05-19T06:38:18.505Z,29.82
2023-05-19T06:39:18.476Z,29.65
2023-05-19T06:40:18.482Z,27.72
2023-05-19T06:41:18.482Z,28.84
2023-05-19T06:42:18.480Z,28.62
2023-05-19T06:43:18.480Z,26.20
2023-05-19T06:44:20.455Z,27.71
2023-05-19T06:45:18.500Z,35.33
2023-05-19T06:46:18.514Z,33.98
2023-05-19T06:47:18.513Z,30.87
2023-05-19T06:48:18.487Z,31.55
2023-05-19T06:49:18.550Z,33.38
2023-05-19T06:50:18.490Z,33.83
2023-05-19T06:51:18.498Z,29.59
2023-05-19T06:52:18.521Z,32.58
2023-05-19T06:53:18.492Z,30.26
2023-05-19T06:54:18.490Z,31.81
2023-05-19T06:55:18.492Z,27.69
2023-05-19T06:56:18.494Z,28.64
2023-05-19T06:57:18.511Z,28.73
2023-05-19T06:58:18.498Z,29.79
2023-05-19T06:59:18.507Z,31.07
2023-05-19T07:00:21.208Z,29.13
2023-05-19T07:01:18.509Z,29.50
2023-05-19T07:02:18.575Z,30.70
2023-05-19T07:03:18.699Z,30.92
2023-05-19T07:04:18.509Z,33.35
2023-05-19T07:05:18.515Z,29.13
2023-05-19T07:06:18.548Z,33.19
2023-05-19T07:07:18.505Z,35.36
2023-05-19T07:08:18.533Z,34.20
2023-05-19T07:09:18.513Z,33.44
2023-05-19T07:10:18.479Z,31.04
2023-05-19T07:11:18.478Z,32.51
2023-05-19T07:12:18.093Z,32.05
2023-05-19T07:13:18.096Z,32.53
2023-05-19T07:14:18.095Z,33.48
2023-05-19T07:15:18.078Z,33.23
2023-05-19T07:16:18.099Z,31.73
2023-05-19T07:17:18.065Z,31.25
2023-05-19T07:18:18.066Z,31.67
2023-05-19T07:19:18.085Z,30.86
2023-05-19T07:20:18.037Z,32.35
2023-05-19T07:21:18.027Z,32.15
2023-05-19T07:22:18.024Z,33.94
2023-05-19T07:23:18.014Z,30.97
2023-05-19T07:24:18.045Z,33.02
2023-05-19T07:25:18.016Z,29.22
2023-05-19T07:26:18.009Z,32.27
2023-05-19T07:27:18.047Z,33.92
2023-05-19T07:28:18.069Z,31.16
2023-05-19T07:29:18.094Z,32.11
2023-05-19T07:30:18.485Z,33.79
2023-05-19T07:31:18.524Z,33.71
2023-05-19T07:32:18.682Z,30.26
2023-05-19T07:33:18.529Z,30.60
2023-05-19T07:34:18.525Z,31.18
2023-05-19T07:35:18.534Z,32.54
2023-05-19T07:36:18.533Z,34.68
2023-05-19T07:37:18.538Z,30.47
2023-05-19T07:38:18.539Z,31.68
2023-05-19T07:39:18.622Z,32.82
2023-05-19T07:40:18.563Z,32.05
2023-05-19T07:41:18.551Z,32.23
2023-05-19T07:42:18.541Z,31.01
2023-05-19T07:43:18.540Z,30.63
2023-05-19T07:44:18.539Z,30.68
2023-05-19T07:45:18.553Z,35.55
2023-05-19T07:46:18.635Z,33.71
2023-05-19T07:47:18.603Z,31.38
2023-05-19T07:48:18.729Z,32.21
2023-05-19T07:49:18.650Z,36.10
2023-05-19T07:50:18.687Z,33.80
2023-05-19T07:51:18.705Z,34.96
2023-05-19T07:52:18.735Z,34.52
2023-05-19T07:53:18.767Z,31.70
2023-05-19T07:54:18.782Z,30.37
2023-05-19T07:55:18.814Z,30.70
2023-05-19T07:56:18.872Z,35.72
2023-05-19T07:57:18.864Z,30.12
2023-05-19T07:58:18.916Z,37.04
2023-05-19T07:59:18.922Z,31.93
2023-05-19T08:00:18.948Z,33.75
2023-05-19T08:01:18.971Z,33.69
2023-05-19T08:02:19.063Z,36.44
2023-05-19T08:03:19.292Z,32.56
2023-05-19T08:04:19.216Z,31.68
2023-05-19T08:05:19.089Z,32.84
2023-05-19T08:06:19.463Z,36.38
2023-05-19T08:07:19.515Z,34.26
2023-05-19T08:08:19.523Z,36.23
2023-05-19T08:09:19.514Z,33.75
2023-05-19T08:10:19.507Z,33.51
2023-05-19T08:11:19.506Z,33.87
2023-05-19T08:12:19.603Z,35.17
2023-05-19T08:13:19.550Z,35.90
2023-05-19T08:14:19.522Z,34.35
2023-05-19T08:15:19.532Z,37.01
2023-05-19T08:16:19.552Z,36.50
2023-05-19T08:17:19.520Z,35.38
2023-05-19T08:18:19.530Z,34.00
2023-05-19T08:19:19.579Z,34.87
2023-05-19T08:20:19.517Z,36.58
2023-05-19T08:21:19.527Z,37.33
2023-05-19T08:22:19.561Z,37.04
2023-05-19T08:23:19.578Z,38.08
2023-05-19T08:24:19.604Z,36.55
2023-05-19T08:25:19.656Z,37.41
2023-05-19T08:26:19.655Z,33.51
2023-05-19T08:27:19.676Z,37.59
2023-05-19T08:28:19.807Z,37.60
2023-05-19T08:29:19.711Z,35.29
2023-05-19T08:30:19.724Z,33.10
2023-05-19T08:31:19.782Z,35.74
2023-05-19T08:32:19.775Z,37.96
2023-05-19T08:33:19.793Z,35.91
2023-05-19T08:34:19.807Z,35.97
2023-05-19T08:35:19.811Z,36.32
2023-05-19T08:36:19.850Z,36.00
2023-05-19T08:37:19.860Z,36.42
2023-05-19T08:38:19.865Z,34.79
2023-05-19T08:39:19.892Z,37.68
2023-05-19T08:40:19.937Z,36.39
2023-05-19T08:41:19.928Z,38.50
2023-05-19T08:42:19.942Z,37.69
2023-05-19T08:43:19.970Z,37.25
2023-05-19T08:44:20.092Z,37.70
2023-05-19T08:45:20.007Z,35.13
2023-05-19T08:46:20.049Z,36.97
2023-05-19T08:47:20.053Z,39.86
2023-05-19T08:48:20.956Z,36.55
2023-05-19T08:49:20.067Z,37.25
2023-05-19T08:50:20.072Z,38.51
2023-05-19T08:51:20.101Z,39.52
2023-05-19T08:52:20.117Z,36.00
2023-05-19T08:54:20.115Z,39.33
2023-05-19T08:55:20.102Z,40.36
2023-05-19T08:56:20.262Z,38.23
2023-05-19T08:57:20.094Z,41.76
2023-05-19T08:58:20.079Z,40.53
2023-05-19T08:59:20.076Z,38.26
2023-05-19T09:00:20.235Z,41.76
2023-05-19T09:01:20.132Z,38.30
2023-05-19T09:02:20.103Z,39.41
2023-05-19T09:03:24.021Z,37.92
2023-05-19T09:04:20.190Z,38.42
2023-05-19T09:05:20.071Z,39.49
2023-05-19T09:06:20.043Z,39.34
2023-05-19T09:07:20.084Z,39.33
2023-05-19T09:08:20.077Z,42.96
2023-05-19T09:09:20.092Z,39.18
2023-05-19T09:10:20.112Z,41.43
2023-05-19T09:11:20.129Z,40.70
2023-05-19T09:12:20.130Z,38.54
2023-05-19T09:13:20.145Z,38.49
2023-05-19T09:14:20.151Z,40.60
2023-05-19T09:15:20.194Z,41.51
2023-05-19T09:16:20.233Z,40.41
2023-05-19T09:17:20.241Z,38.03
2023-05-19T09:18:20.208Z,41.47
2023-05-19T09:19:20.234Z,41.70
2023-05-19T09:20:20.322Z,42.31
2023-05-19T09:21:20.259Z,41.24
2023-05-19T09:22:20.264Z,40.42
2023-05-19T09:23:20.257Z,41.39
2023-05-19T09:24:20.276Z,42.67
2023-05-19T09:25:20.282Z,42.06
2023-05-19T09:26:20.288Z,41.29
2023-05-19T09:27:20.296Z,42.90
2023-05-19T09:28:20.351Z,40.18
2023-05-19T09:29:20.321Z,39.99
2023-05-19T09:30:20.344Z,43.49
2023-05-19T09:31:20.361Z,44.31
2023-05-19T09:32:20.445Z,40.67
2023-05-19T09:33:20.427Z,42.08
2023-05-19T09:34:20.412Z,43.42
2023-05-19T09:35:20.401Z,42.94
2023-05-19T09:36:20.420Z,47.12
2023-05-19T09:37:20.429Z,41.51
2023-05-19T09:38:20.450Z,44.51
2023-05-19T09:39:20.462Z,42.85
2023-05-19T09:40:20.472Z,44.68
2023-05-19T09:41:20.482Z,46.93
2023-05-19T09:42:20.492Z,40.67
2023-05-19T09:43:20.506Z,43.03
2023-05-19T09:44:20.510Z,42.30
2023-05-19T09:45:20.526Z,42.97
2023-05-19T09:46:20.599Z,43.83
2023-05-19T09:47:20.536Z,42.61
2023-05-19T09:48:20.567Z,40.97
2023-05-19T09:49:20.538Z,41.16
2023-05-19T09:50:20.538Z,40.81
2023-05-19T09:51:20.545Z,43.05
2023-05-19T09:52:20.548Z,43.26
2023-05-19T09:53:20.540Z,41.27
2023-05-19T09:54:20.570Z,43.59
2023-05-19T09:55:20.551Z,43.63
2023-05-19T09:56:20.540Z,43.06
2023-05-19T09:57:20.557Z,41.21
2023-05-19T09:58:20.572Z,42.64
2023-05-19T09:59:20.556Z,43.89
2023-05-19T10:00:20.545Z,43.80
2023-05-19T10:01:20.595Z,42.73
2023-05-19T10:02:20.570Z,44.61
2023-05-19T10:03:20.560Z,43.65
2023-05-19T10:04:20.586Z,43.07
2023-05-19T10:05:20.904Z,43.23
2023-05-19T10:06:20.561Z,48.13
2023-05-19T10:07:20.573Z,44.91
2023-05-19T10:08:20.573Z,46.26
2023-05-19T10:09:20.587Z,45.96
2023-05-19T10:10:20.603Z,44.66
2023-05-19T10:11:20.589Z,44.51
2023-05-19T10:12:20.604Z,47.91
2023-05-19T10:13:20.591Z,46.63
2023-05-19T10:14:20.604Z,46.37
2023-05-19T10:15:22.893Z,46.83
2023-05-19T10:16:20.651Z,52.06
2023-05-19T10:17:20.592Z,49.02
2023-05-19T10:18:20.581Z,49.12
2023-05-19T10:19:20.628Z,50.67
2023-05-19T10:20:20.603Z,46.95
2023-05-19T10:21:20.567Z,49.71
2023-05-19T10:22:20.565Z,47.00
2023-05-19T10:23:20.552Z,48.15
2023-05-19T10:24:20.546Z,48.80
2023-05-19T10:25:20.537Z,47.86
2023-05-19T10:26:20.529Z,47.31
2023-05-19T10:27:20.525Z,46.05
2023-05-19T10:28:20.529Z,49.94
2023-05-19T10:29:20.515Z,47.18
2023-05-19T10:30:20.524Z,45.37
2023-05-19T10:31:20.507Z,48.27
2023-05-19T10:32:20.510Z,48.85
2023-05-19T10:33:20.535Z,50.81
2023-05-19T10:34:20.481Z,49.09
2023-05-19T10:35:20.478Z,49.30
2023-05-19T10:36:20.485Z,48.25
2023-05-19T10:37:20.454Z,52.03
2023-05-19T10:38:20.450Z,48.25
2023-05-19T10:39:20.447Z,50.63
2023-05-19T10:40:20.442Z,49.41
2023-05-19T10:41:20.430Z,48.85
2023-05-19T10:42:20.429Z,51.93
2023-05-19T10:43:20.418Z,48.64
2023-05-19T10:44:20.406Z,50.48
2023-05-19T10:45:20.418Z,49.32
2023-05-19T10:46:20.501Z,50.95
2023-05-19T10:47:20.456Z,49.60
2023-05-19T10:48:20.392Z,52.74
2023-05-19T10:49:20.387Z,50.94
2023-05-19T10:50:20.362Z,49.08
2023-05-19T10:51:20.361Z,49.50
2023-05-19T10:52:20.392Z,52.03
2023-05-19T10:53:20.350Z,48.53
2023-05-19T10:54:20.352Z,50.77
2023-05-19T10:55:20.335Z,51.61
2023-05-19T10:56:20.375Z,52.43
2023-05-19T10:57:20.328Z,52.67
2023-05-19T10:58:20.309Z,50.49
2023-05-19T10:59:20.312Z,51.72
2023-05-19T11:00:20.297Z,52.61
2023-05-19T11:01:20.312Z,51.14
2023-05-19T11:02:20.395Z,52.20
2023-05-19T11:03:20.326Z,52.45
2023-05-19T11:04:20.325Z,50.11
2023-05-19T11:05:20.254Z,51.09
2023-05-19T11:06:20.255Z,52.49
2023-05-19T11:07:20.247Z,51.53
2023-05-19T11:08:20.356Z,51.99
2023-05-19T11:09:31.116Z,51.17
2023-05-19T11:10:21.599Z,51.60
2023-05-19T11:11:20.204Z,51.77
2023-05-19T11:12:20.229Z,53.03
2023-05-19T11:13:20.205Z,51.91
2023-05-19T11:14:20.214Z,54.60
2023-05-19T11:15:20.188Z,56.31
2023-05-19T11:16:20.213Z,54.68
2023-05-19T11:17:20.169Z,51.84
2023-05-19T11:18:20.166Z,52.88
2023-05-19T11:19:20.244Z,53.33
2023-05-19T11:20:20.151Z,52.62
2023-05-19T11:21:20.215Z,54.38
2023-05-19T11:22:20.146Z,51.74
2023-05-19T11:23:20.206Z,54.70
2023-05-19T11:24:20.167Z,53.37
2023-05-19T11:25:20.137Z,55.19
2023-05-19T11:26:20.134Z,53.38
2023-05-19T11:27:20.132Z,52.83
2023-05-19T11:28:20.261Z,55.20
2023-05-19T11:29:20.143Z,53.58
2023-05-19T11:30:20.323Z,53.49
2023-05-19T11:31:20.147Z,53.54
2023-05-19T11:32:20.242Z,55.24
2023-05-19T11:33:20.186Z,54.77
2023-05-19T11:34:20.112Z,54.02
2023-05-19T11:35:20.113Z,55.31
2023-05-19T11:36:20.118Z,52.98
2023-05-19T11:37:20.117Z,54.73
2023-05-19T11:38:20.127Z,52.63
2023-05-19T11:39:20.114Z,53.85
2023-05-19T11:40:20.177Z,55.37
2023-05-19T11:41:20.853Z,54.74
2023-05-19T11:42:20.121Z,55.76
2023-05-19T11:43:20.143Z,52.91
2023-05-19T11:44:20.103Z,53.43
2023-05-19T11:45:20.097Z,52.52
2023-05-19T11:46:20.105Z,54.13
2023-05-19T11:47:20.075Z,55.45
2023-05-19T11:48:20.107Z,56.58
2023-05-19T11:49:20.082Z,52.56
2023-05-19T11:50:20.064Z,55.81
2023-05-19T11:51:20.054Z,54.88
2023-05-19T11:52:20.048Z,54.53
2023-05-19T11:53:20.239Z,54.30
2023-05-19T11:54:20.043Z,51.52
2023-05-19T11:55:20.032Z,56.89
2023-05-19T11:56:20.053Z,54.02
2023-05-19T11:58:23.166Z,25.00
2023-05-19T11:59:23.948Z,25.00
2023-05-19T12:00:23.946Z,25.00
2023-05-19T12:01:23.932Z,25.00
2023-05-19T12:02:24.010Z,25.00
2023-05-19T12:03:24.009Z,26.23
2023-05-19T12:04:23.919Z,26.33
2023-05-19T12:05:23.972Z,27.23
2023-05-19T12:06:23.950Z,26.21
2023-05-19T12:07:23.903Z,27.39
2023-05-19T12:08:23.894Z,28.15
2023-05-19T12:09:23.876Z,27.03
2023-05-19T12:10:23.873Z,27.71
2023-05-19T12:11:23.910Z,25.00
2023-05-19T12:12:23.941Z,26.95
2023-05-19T12:13:23.857Z,28.48
2023-05-19T12:14:23.858Z,25.00
2023-05-19T12:15:23.850Z,27.18
2023-05-19T12:16:23.866Z,28.17
2023-05-19T12:17:23.936Z,29.55
2023-05-19T12:18:23.822Z,26.75
2023-05-19T12:19:23.982Z,26.23
2023-05-19T12:20:23.803Z,29.59
2023-05-19T12:21:23.808Z,27.07
2023-05-19T12:22:23.793Z,27.51
2023-05-19T12:23:23.779Z,28.36
2023-05-19T12:24:23.766Z,29.26
2023-05-19T12:25:23.768Z,31.40
2023-05-19T12:26:23.756Z,28.93
2023-05-19T12:27:23.804Z,30.60
2023-05-19T12:28:23.754Z,29.64
2023-05-19T12:29:23.816Z,28.72
2023-05-19T12:30:23.729Z,27.67
2023-05-19T12:31:23.817Z,27.57
2023-05-19T12:32:23.730Z,25.87
2023-05-19T12:33:23.723Z,27.24
2023-05-19T12:34:23.716Z,27.80
2023-05-19T12:35:23.697Z,28.26
2023-05-19T12:36:23.691Z,29.07
2023-05-19T12:37:23.691Z,27.34
2023-05-19T12:38:23.690Z,26.03
2023-05-19T12:39:23.670Z,26.60
2023-05-19T12:40:23.669Z,27.73
2023-05-19T12:41:23.662Z,27.08
2023-05-19T12:42:23.654Z,26.28
2023-05-19T12:43:23.681Z,26.53
2023-05-19T12:44:23.640Z,28.64
2023-05-19T12:45:23.635Z,26.10
2023-05-19T12:46:23.788Z,27.07
2023-05-19T12:47:23.648Z,29.55
2023-05-19T12:48:23.604Z,31.52
2023-05-19T12:49:23.614Z,28.04
2023-05-19T12:50:23.601Z,28.65
2023-05-19T12:51:23.595Z,32.08
2023-05-19T12:52:23.591Z,28.53
2023-05-19T12:53:23.578Z,25.62
2023-05-19T12:54:23.620Z,26.88
2023-05-19T12:55:23.571Z,28.04
2023-05-19T12:56:23.562Z,29.68